Time;durP1;ratioP1;P1;durP2;ratioP2;P2;SDS_P1;SDS_P2;PMS_P1;PMS_P2;Temp;Humidity;BMP_temperature;BMP_pressure;BME280_temperature;BME280_humidity;BME280_pressure;Samples;Min_cycle;Max_cycle;Signal;HPM_P1;HPM_P2
2023/04/14 00:02:23;;;;;;;316.13;300.60;;;18.80;87.10;;;;;;5063167;28;20187;-65
2023/04/14 00:04:54;;;;;;;350.53;333.17;;;18.60;87.50;;;;;;5065919;28;20249;-66
2023/04/14 00:07:21;;;;;;;380.27;361.27;;;18.50;87.80;;;;;;5070210;28;20191;-70
2023/04/14 00:09:48;;;;;;;387.63;367.63;;;18.40;88.70;;;;;;5067720;28;20306;-64
2023/04/14 00:12:16;;;;;;;379.60;360.40;;;18.30;88.80;;;;;;5071189;28;20293;-69
2023/04/14 00:14:43;;;;;;;404.40;383.63;;;18.30;88.60;;;;;;5069723;28;20183;-65
2023/04/14 00:17:10;;;;;;;419.20;398.03;;;18.40;89.00;;;;;;5070288;28;20222;-68
2023/04/14 00:19:38;;;;;;;400.70;380.60;;;18.50;89.00;;;;;;5069951;28;20186;-64
2023/04/14 00:22:05;;;;;;;345.20;328.37;;;18.60;88.80;;;;;;5069166;28;20216;-68
2023/04/14 00:24:39;;;;;;;260.03;247.23;;;18.80;88.10;;;;;;5071122;28;20672;-68
2023/04/14 00:27:07;;;;;;;154.00;145.87;;;19.10;86.80;;;;;;5069329;28;20187;-68
2023/04/14 00:29:34;;;;;;;105.30;99.53;;;19.30;84.30;;;;;;5069659;28;20194;-70
2023/04/14 00:32:01;;;;;;;73.20;69.07;;;19.50;83.60;;;;;;5068198;28;20179;-67
2023/04/14 00:34:29;;;;;;;65.27;61.47;;;19.60;82.40;;;;;;5067870;28;20685;-67
2023/04/14 00:36:56;;;;;;;45.20;42.50;;;19.70;82.30;;;;;;5063554;28;20195;-70
2023/04/14 00:39:24;;;;;;;42.80;40.20;;;19.80;82.10;;;;;;5073010;28;20653;-69
2023/04/14 00:41:51;;;;;;;42.87;40.33;;;20.00;81.70;;;;;;5070636;28;20187;-70
2023/04/14 00:44:19;;;;;;;34.43;32.17;;;20.20;82.40;;;;;;5071346;28;20191;-71
2023/04/14 00:46:47;;;;;;;20.30;18.40;;;20.50;81.90;;;;;;5072433;28;20237;-71
2023/04/14 00:49:15;;;;;;;17.93;16.27;;;20.30;80.40;;;;;;5072277;28;20175;-67
2023/04/14 00:51:46;;;;;;;12.83;11.47;;;20.50;80.40;;;;;;5072440;28;20175;-70
2023/04/14 00:54:17;;;;;;;10.23;9.30;;;20.60;79.70;;;;;;5073125;28;20199;-68
2023/04/14 00:56:46;;;;;;;11.00;10.00;;;20.80;78.60;;;;;;5073265;28;20184;-70
2023/04/14 00:59:15;;;;;;;11.67;7.70;;;20.80;79.50;;;;;;5073724;28;20180;-71
2023/04/14 01:01:43;;;;;;;10.17;6.97;;;20.70;78.50;;;;;;5073748;28;20198;-68
2023/04/14 01:04:11;;;;;;;8.20;7.10;;;20.60;78.40;;;;;;5073759;28;20187;-72
2023/04/14 01:06:41;;;;;;;11.97;9.00;;;20.40;79.10;;;;;;5067265;28;20246;-70
2023/04/14 01:09:09;;;;;;;11.50;9.83;;;20.30;80.30;;;;;;5071760;28;20573;-67
2023/04/14 01:11:48;;;;;;;11.03;10.20;;;20.20;80.20;;;;;;5070706;28;20188;-70
2023/04/14 01:14:47;;;;;;;28.43;26.73;;;19.70;81.10;;;;;;5066280;28;20670;-69
2023/04/14 01:17:18;;;;;;;49.30;46.37;;;18.80;84.10;;;;;;5057684;28;20573;-66
2023/04/14 01:20:03;;;;;;;94.47;89.43;;;18.00;87.40;;;;;;5069220;28;20259;-70
2023/04/14 01:22:32;;;;;;;160.83;152.43;;;17.80;88.70;;;;;;5072360;28;20209;-70
2023/04/14 01:25:33;;;;;;;209.57;199.23;;;17.80;89.60;;;;;;5071228;28;20256;-69
2023/04/14 01:28:25;;;;;;;273.30;260.00;;;17.70;90.20;;;;;;5072461;28;20183;-70
2023/04/14 01:31:22;;;;;;;316.37;300.90;;;17.80;90.80;;;;;;5067006;28;20202;-69
2023/04/14 01:34:14;;;;;;;357.37;339.90;;;17.80;90.70;;;;;;5065558;28;20213;-70
2023/04/14 01:37:01;;;;;;;417.87;396.77;;;17.90;90.80;;;;;;5068658;28;20191;-71
2023/04/14 01:39:40;;;;;;;449.07;426.17;;;17.90;90.80;;;;;;5070520;28;20175;-70
2023/04/14 01:42:12;;;;;;;427.17;405.53;;;18.10;91.30;;;;;;5071261;28;20178;-69
2023/04/14 01:44:41;;;;;;;442.07;419.43;;;18.00;90.60;;;;;;5068478;28;20199;-69
2023/04/14 01:47:13;;;;;;;446.77;423.80;;;18.00;91.20;;;;;;5066418;28;20214;-69
2023/04/14 01:49:41;;;;;;;471.43;447.07;;;18.20;91.10;;;;;;5070427;28;20189;-68
2023/04/14 01:52:10;;;;;;;470.13;445.67;;;18.20;91.10;;;;;;5070744;28;20177;-66
2023/04/14 01:54:41;;;;;;;444.73;422.07;;;18.30;91.20;;;;;;5071907;28;20755;-68
2023/04/14 01:57:10;;;;;;;422.67;401.40;;;18.40;90.70;;;;;;5069142;28;20209;-68
2023/04/14 01:59:40;;;;;;;359.57;341.97;;;18.60;90.80;;;;;;5070408;28;20668;-67
2023/04/14 02:02:09;;;;;;;347.47;330.37;;;18.70;89.70;;;;;;5071884;28;20266;-70
2023/04/14 02:04:39;;;;;;;340.67;324.20;;;19.00;89.50;;;;;;5071554;28;20263;-69
2023/04/14 02:07:09;;;;;;;334.37;318.10;;;19.20;88.90;;;;;;5071043;28;20191;-70
2023/04/14 02:09:40;;;;;;;263.37;250.57;;;19.20;88.60;;;;;;5069909;28;20773;-69
2023/04/14 02:12:10;;;;;;;161.43;153.00;;;19.50;88.30;;;;;;5070997;28;20226;-70
2023/04/14 02:14:40;;;;;;;98.73;93.40;;;20.20;86.40;;;;;;5070962;28;20186;-67
2023/04/14 02:17:11;;;;;;;84.80;80.23;;;20.60;84.50;;;;;;5071792;28;20183;-72
2023/04/14 02:19:41;;;;;;;24.70;23.10;;;21.20;82.70;;;;;;5071681;28;20691;-70
2023/04/14 02:22:09;;;;;;;17.77;16.00;;;21.00;82.40;;;;;;5071730;28;20175;-71
2023/04/14 02:24:36;;;;;;;15.03;13.77;;;21.50;80.00;;;;;;5068065;28;20224;-68
2023/04/14 02:27:15;;;;;;;10.57;9.57;;;21.80;80.40;;;;;;5071712;28;20180;-68
2023/04/14 02:29:50;;;;;;;6.70;5.03;;;22.20;78.20;;;;;;5071178;28;20652;-68
2023/04/14 02:32:28;;;;;;;6.80;5.10;;;21.90;77.50;;;;;;5067178;28;20649;-68
2023/04/14 02:35:18;;;;;;;6.57;5.27;;;21.80;78.70;;;;;;5070073;28;20256;-67
2023/04/14 02:37:50;;;;;;;7.40;6.10;;;21.80;79.60;;;;;;5070104;28;20720;-68
2023/04/14 02:40:29;;;;;;;8.97;6.43;;;21.60;80.20;;;;;;5067932;28;20183;-67
2023/04/14 02:43:11;;;;;;;7.93;5.03;;;21.50;79.70;;;;;;5070802;28;20190;-69
2023/04/14 02:45:41;;;;;;;8.87;3.90;;;21.30;80.10;;;;;;5068971;28;20226;-69
2023/04/14 02:48:12;;;;;;;10.13;4.00;;;21.80;78.30;;;;;;5065501;28;20210;-66
2023/04/14 02:50:43;;;;;;;7.80;2.70;;;22.20;77.40;;;;;;5068222;28;20183;-68
2023/04/14 02:53:11;;;;;;;4.37;2.30;;;21.80;76.10;;;;;;5070799;28;20273;-68
2023/04/14 02:55:39;;;;;;;5.60;2.80;;;21.20;76.50;;;;;;5072165;28;20194;-66
2023/04/14 02:58:07;;;;;;;6.53;3.10;;;21.30;76.80;;;;;;5071899;28;20187;-66
2023/04/14 03:00:37;;;;;;;10.13;2.80;;;21.70;77.50;;;;;;5071126;28;20294;-66
2023/04/14 03:03:06;;;;;;;6.70;1.73;;;22.30;74.70;;;;;;5071076;28;20202;-67
2023/04/14 03:05:34;;;;;;;10.07;2.60;;;22.00;74.00;;;;;;5068696;28;20219;-66
2023/04/14 03:08:03;;;;;;;6.67;1.60;;;22.30;74.30;;;;;;5070968;28;20190;-65
2023/04/14 03:10:32;;;;;;;7.27;1.80;;;21.80;72.90;;;;;;5069865;28;20226;-67
2023/04/14 03:13:02;;;;;;;8.53;1.90;;;21.40;73.80;;;;;;5071082;28;20645;-66
2023/04/14 03:15:32;;;;;;;10.93;1.93;;;21.30;74.20;;;;;;5071375;28;20776;-66
2023/04/14 03:18:00;;;;;;;9.10;1.87;;;21.80;72.90;;;;;;5070956;28;20194;-67
2023/04/14 03:20:28;;;;;;;5.73;1.50;;;22.50;70.50;;;;;;5071133;28;20201;-67
2023/04/14 03:23:03;;;;;;;5.63;1.97;;;22.80;69.60;;;;;;5070858;28;20642;-66
2023/04/14 03:25:33;;;;;;;7.77;1.73;;;22.80;68.40;;;;;;5070670;28;20257;-67
2023/04/14 03:28:03;;;;;;;4.40;1.23;;;23.20;69.40;;;;;;5070900;28;20186;-66
2023/04/14 03:30:34;;;;;;;8.23;1.37;;;23.50;66.20;;;;;;5070505;28;20194;-67
2023/04/14 03:33:13;;;;;;;6.03;1.63;;;23.80;65.60;;;;;;5070561;28;20264;-67
2023/04/14 03:35:41;;;;;;;7.50;1.93;;;23.80;65.10;;;;;;5064888;28;20649;-68
2023/04/14 03:38:10;;;;;;;6.77;1.83;;;23.90;63.90;;;;;;5068526;28;20175;-67
2023/04/14 03:40:41;;;;;;;5.50;1.30;;;24.30;63.90;;;;;;5067308;28;20295;-68
2023/04/14 03:43:11;;;;;;;7.13;1.60;;;24.40;61.70;;;;;;5071328;28;20987;-67
2023/04/14 03:45:39;;;;;;;6.30;1.30;;;24.70;61.20;;;;;;5070658;28;20253;-68
2023/04/14 03:48:11;;;;;;;6.13;1.30;;;25.50;60.10;;;;;;5069694;28;20187;-67
2023/04/14 03:50:41;;;;;;;6.67;1.27;;;24.90;59.00;;;;;;5071069;28;20224;-71
2023/04/14 03:53:14;;;;;;;4.83;1.40;;;24.30;60.40;;;;;;5069611;28;20179;-69
2023/04/14 03:55:45;;;;;;;4.60;1.13;;;24.30;62.50;;;;;;5070122;28;20185;-69
2023/04/14 03:58:15;;;;;;;4.27;1.30;;;24.70;60.50;;;;;;5069244;28;20254;-71
2023/04/14 04:00:44;;;;;;;4.97;1.10;;;24.80;58.70;;;;;;5071279;28;20558;-73
2023/04/14 04:03:13;;;;;;;5.77;0.97;;;25.00;57.30;;;;;;5070028;28;20260;-72
2023/04/14 04:05:42;;;;;;;10.37;1.23;;;25.30;57.90;;;;;;5070152;28;20208;-69
2023/04/14 04:08:10;;;;;;;8.67;1.17;;;25.40;55.90;;;;;;5070719;28;20200;-72
2023/04/14 04:10:40;;;;;;;6.57;1.23;;;25.30;57.20;;;;;;5070277;28;20234;-72
2023/04/14 04:13:12;;;;;;;4.43;1.03;;;25.60;56.30;;;;;;5066152;28;20277;-70
2023/04/14 04:15:41;;;;;;;5.90;1.13;;;25.60;55.50;;;;;;5073886;28;20184;-71
2023/04/14 04:18:10;;;;;;;5.57;1.47;;;25.60;56.40;;;;;;5074329;28;20206;-69
2023/04/14 04:20:39;;;;;;;7.50;1.33;;;26.10;54.80;;;;;;5074664;28;20176;-66
2023/04/14 04:23:07;;;;;;;8.53;1.53;;;26.20;55.10;;;;;;5074430;28;20264;-67
2023/04/14 04:25:40;;;;;;;5.27;1.37;;;25.80;55.20;;;;;;5073748;28;20243;-67
2023/04/14 04:28:08;;;;;;;5.53;1.73;;;25.90;56.00;;;;;;5073385;28;20255;-67
2023/04/14 04:30:41;;;;;;;7.40;1.60;;;26.10;54.50;;;;;;5072449;28;20630;-66
2023/04/14 04:33:10;;;;;;;7.23;1.33;;;25.70;56.20;;;;;;5072128;28;20179;-67
2023/04/14 04:35:38;;;;;;;6.77;1.30;;;26.30;55.10;;;;;;5072609;28;20188;-66
2023/04/14 04:38:10;;;;;;;5.30;1.13;;;26.50;53.80;;;;;;5074081;28;20666;-66
2023/04/14 04:40:38;;;;;;;6.63;1.40;;;26.60;53.30;;;;;;5074401;28;20183;-66
2023/04/14 04:43:05;;;;;;;2.67;0.90;;;26.80;53.00;;;;;;5072972;28;20179;-67
2023/04/14 04:46:03;;;;;;;2.97;0.83;;;26.50;53.70;;;;;;5072909;28;20226;-68
2023/04/14 04:48:30;;;;;;;4.07;0.90;;;26.60;52.80;;;;;;5073151;28;20185;-69
2023/04/14 04:50:58;;;;;;;4.57;1.00;;;26.40;53.30;;;;;;5074075;28;20189;-67
2023/04/14 04:53:25;;;;;;;5.10;1.37;;;25.70;57.00;;;;;;5072980;28;20179;-66
2023/04/14 04:55:52;;;;;;;6.33;1.53;;;25.60;57.10;;;;;;5073106;28;20205;-68
2023/04/14 04:58:19;;;;;;;3.70;1.00;;;26.10;55.40;;;;;;5072516;28;20646;-66
2023/04/14 05:00:47;;;;;;;6.00;0.83;;;24.90;54.30;;;;;;5073671;28;20216;-69
2023/04/14 05:03:15;;;;;;;3.83;1.00;;;24.20;56.80;;;;;;5074472;28;20211;-67
2023/04/14 05:05:42;;;;;;;3.80;0.77;;;23.80;59.90;;;;;;5072597;28;20238;-68
2023/04/14 05:08:11;;;;;;;2.83;0.97;;;23.30;63.50;;;;;;5073100;28;20196;-67
2023/04/14 05:10:38;;;;;;;5.27;1.80;;;22.70;67.20;;;;;;5072614;28;20543;-67
2023/04/14 05:13:05;;;;;;;5.20;1.33;;;21.70;71.60;;;;;;5071842;28;20190;-68
2023/04/14 05:15:33;;;;;;;5.57;1.40;;;21.20;73.40;;;;;;5072207;28;20187;-69
2023/04/14 05:18:00;;;;;;;7.70;1.73;;;21.00;75.90;;;;;;5071369;28;20221;-69
2023/04/14 05:20:28;;;;;;;5.40;1.60;;;20.80;77.70;;;;;;5070077;28;20623;-68
2023/04/14 05:22:55;;;;;;;7.37;1.43;;;20.80;78.10;;;;;;5072492;28;20167;-68
2023/04/14 05:25:23;;;;;;;5.43;1.50;;;20.70;76.90;;;;;;5068134;28;20666;-69
2023/04/14 05:27:50;;;;;;;8.67;1.90;;;20.60;78.20;;;;;;5072676;28;20172;-68
2023/04/14 05:30:17;;;;;;;7.27;1.93;;;21.00;79.20;;;;;;5072735;28;20213;-68
2023/04/14 05:32:45;;;;;;;11.67;1.70;;;21.70;77.00;;;;;;5072641;28;20180;-68
2023/04/14 05:35:12;;;;;;;7.60;1.90;;;22.10;75.10;;;;;;5070064;28;20221;-69
2023/04/14 05:37:40;;;;;;;9.97;2.20;;;22.50;73.40;;;;;;5071417;28;20237;-67
2023/04/14 05:40:08;;;;;;;7.23;1.97;;;23.50;70.90;;;;;;5070963;28;20183;-68
2023/04/14 05:42:35;;;;;;;4.90;1.97;;;23.60;70.90;;;;;;5072643;28;20265;-67
2023/04/14 05:45:03;;;;;;;8.37;1.70;;;23.40;69.50;;;;;;5071790;28;20214;-67
2023/04/14 05:47:30;;;;;;;7.33;1.30;;;23.80;68.10;;;;;;5072763;28;20259;-68
2023/04/14 05:49:57;;;;;;;5.53;1.60;;;24.30;64.60;;;;;;5071419;28;20187;-68
2023/04/14 05:52:25;;;;;;;6.20;1.27;;;24.50;63.00;;;;;;5072855;28;20206;-68
2023/04/14 05:54:52;;;;;;;7.43;1.47;;;24.80;63.20;;;;;;5069715;28;20208;-67
2023/04/14 05:57:20;;;;;;;4.50;1.47;;;24.40;64.30;;;;;;5069447;28;20179;-67
2023/04/14 05:59:47;;;;;;;4.07;1.60;;;24.60;64.20;;;;;;5072235;28;20179;-67
2023/04/14 06:02:14;;;;;;;4.97;1.10;;;24.50;62.30;;;;;;5072591;28;20579;-68
2023/04/14 06:04:42;;;;;;;4.10;1.10;;;25.40;60.60;;;;;;5072479;28;20214;-68
2023/04/14 06:07:09;;;;;;;6.53;1.30;;;26.00;60.50;;;;;;5071307;28;20237;-67
2023/04/14 06:09:37;;;;;;;4.80;1.20;;;24.80;60.30;;;;;;5070380;28;20215;-69
2023/04/14 06:12:04;;;;;;;5.00;1.37;;;23.70;64.20;;;;;;5071138;28;20634;-69
2023/04/14 06:14:31;;;;;;;10.30;1.67;;;23.30;66.00;;;;;;5071191;28;20225;-68
2023/04/14 06:16:59;;;;;;;5.67;1.33;;;24.00;65.50;;;;;;5071934;28;20187;-68
2023/04/14 06:19:26;;;;;;;8.40;1.50;;;25.10;62.60;;;;;;5071784;28;20524;-67
2023/04/14 06:21:53;;;;;;;4.63;1.43;;;24.10;62.40;;;;;;5071572;28;20191;-71
2023/04/14 06:24:20;;;;;;;7.50;2.03;;;24.30;63.80;;;;;;5070977;28;20180;-67
2023/04/14 06:26:48;;;;;;;6.57;1.77;;;23.40;65.40;;;;;;5070767;28;20264;-69
2023/04/14 06:29:16;;;;;;;5.80;1.67;;;22.70;69.10;;;;;;5062533;28;20625;-66
2023/04/14 06:31:43;;;;;;;15.97;2.37;;;22.30;68.80;;;;;;5070692;28;20210;-69
2023/04/14 06:34:11;;;;;;;7.40;2.03;;;21.80;71.40;;;;;;5071290;28;20278;-69
2023/04/14 06:36:38;;;;;;;8.20;1.90;;;21.50;72.60;;;;;;5070489;28;20282;-69
2023/04/14 06:39:05;;;;;;;8.57;1.60;;;21.40;73.60;;;;;;5071080;28;20175;-69
2023/04/14 06:41:33;;;;;;;9.07;2.27;;;21.20;74.00;;;;;;5071643;28;20304;-69
2023/04/14 06:44:00;;;;;;;7.60;1.70;;;21.20;73.30;;;;;;5070956;28;20210;-69
2023/04/14 06:46:27;;;;;;;9.80;2.00;;;21.10;74.20;;;;;;5070222;28;20223;-70
2023/04/14 06:48:55;;;;;;;13.00;2.43;;;21.00;74.10;;;;;;5069738;28;20176;-69
2023/04/14 06:51:22;;;;;;;6.43;1.80;;;21.00;74.40;;;;;;5072639;28;20697;-67
2023/04/14 06:53:49;;;;;;;8.07;2.63;;;21.00;74.20;;;;;;5071229;28;20539;-67
2023/04/14 06:56:17;;;;;;;9.07;2.27;;;21.00;74.40;;;;;;5070387;28;20183;-69
2023/04/14 06:58:44;;;;;;;10.00;1.97;;;21.00;74.70;;;;;;5070618;28;20545;-69
2023/04/14 07:01:11;;;;;;;4.37;1.60;;;20.80;75.00;;;;;;5068128;28;20176;-67
2023/04/14 07:03:39;;;;;;;9.37;1.70;;;20.70;75.20;;;;;;5064697;28;20717;-68
2023/04/14 07:06:10;;;;;;;12.30;1.87;;;20.50;75.20;;;;;;5070859;28;20215;-67
2023/04/14 07:08:39;;;;;;;5.83;1.50;;;20.40;76.50;;;;;;5070115;28;20187;-69
2023/04/14 07:11:09;;;;;;;9.17;2.20;;;20.30;76.50;;;;;;5070810;28;20199;-68
2023/04/14 07:13:37;;;;;;;10.03;2.40;;;20.30;76.70;;;;;;5068380;28;20655;-68
2023/04/14 07:16:06;;;;;;;10.63;2.30;;;20.20;76.90;;;;;;5070474;28;20179;-67
2023/04/14 07:18:33;;;;;;;9.33;1.90;;;20.10;77.00;;;;;;5069990;28;20183;-72
2023/04/14 07:21:01;;;;;;;9.03;2.07;;;20.10;77.30;;;;;;5064539;28;20179;-69
2023/04/14 07:23:29;;;;;;;9.47;2.00;;;20.10;77.40;;;;;;5069047;28;20273;-67
2023/04/14 07:25:58;;;;;;;9.27;1.70;;;20.00;77.40;;;;;;5071205;28;20245;-67
2023/04/14 07:28:27;;;;;;;6.83;1.60;;;19.90;77.60;;;;;;5070260;28;20184;-70
2023/04/14 07:30:54;;;;;;;8.17;2.13;;;19.70;77.40;;;;;;5068515;28;20210;-68
2023/04/14 07:33:22;;;;;;;8.57;1.93;;;19.70;78.50;;;;;;5071518;28;20273;-68
2023/04/14 07:35:51;;;;;;;10.23;2.33;;;19.70;78.60;;;;;;5064832;28;20649;-68
2023/04/14 07:38:19;;;;;;;5.97;2.10;;;19.70;78.50;;;;;;5068289;28;20219;-68
2023/04/14 07:40:46;;;;;;;5.07;1.73;;;19.80;78.90;;;;;;5069945;28;20274;-68
2023/04/14 07:43:14;;;;;;;7.70;1.90;;;19.70;79.10;;;;;;5071045;28;20658;-71
2023/04/14 07:45:42;;;;;;;8.00;1.83;;;19.70;79.00;;;;;;5069331;28;20223;-67
2023/04/14 07:48:09;;;;;;;13.00;2.53;;;19.70;79.20;;;;;;5076187;28;20633;-69
2023/04/14 07:50:36;;;;;;;7.70;2.30;;;19.60;79.40;;;;;;5074208;28;20182;-67
2023/04/14 07:53:05;;;;;;;9.67;2.30;;;19.60;79.40;;;;;;5074906;28;20290;-68
2023/04/14 07:55:32;;;;;;;10.00;2.80;;;19.50;78.90;;;;;;5073716;28;20195;-68
2023/04/14 07:58:00;;;;;;;9.50;3.13;;;19.50;79.40;;;;;;5070486;28;20182;-69
2023/04/14 08:00:27;;;;;;;15.70;3.70;;;19.50;79.40;;;;;;5074187;28;20189;-67
2023/04/14 08:02:54;;;;;;;11.30;3.03;;;19.50;79.30;;;;;;5074768;28;20258;-67
2023/04/14 08:05:22;;;;;;;6.63;2.23;;;19.50;79.60;;;;;;5073544;28;20205;-68
2023/04/14 08:07:50;;;;;;;9.23;2.13;;;19.50;79.70;;;;;;5075536;28;20189;-68
2023/04/14 08:10:18;;;;;;;13.07;3.03;;;19.30;80.00;;;;;;5071559;28;20239;-67
2023/04/14 08:12:45;;;;;;;10.23;2.50;;;19.30;80.50;;;;;;5072703;28;20187;-67
2023/04/14 08:15:12;;;;;;;10.90;2.50;;;19.30;81.00;;;;;;5073501;28;20649;-67
2023/04/14 08:17:40;;;;;;;13.47;2.70;;;19.20;81.30;;;;;;5074180;28;20605;-66
2023/04/14 08:20:08;;;;;;;7.40;3.00;;;19.20;81.20;;;;;;5073241;28;20334;-68
2023/04/14 08:22:35;;;;;;;8.70;2.77;;;19.10;81.50;;;;;;5073693;28;20258;-68
2023/04/14 08:25:03;;;;;;;12.47;3.20;;;19.10;81.50;;;;;;5077662;28;20195;-67
2023/04/14 08:27:30;;;;;;;9.73;2.67;;;19.00;81.80;;;;;;5073393;28;20301;-68
2023/04/14 08:29:58;;;;;;;12.33;2.83;;;19.00;82.20;;;;;;5073309;28;20187;-69
2023/04/14 08:32:25;;;;;;;7.90;2.37;;;18.90;82.20;;;;;;5073650;28;20183;-67
2023/04/14 08:34:52;;;;;;;10.00;2.70;;;18.90;82.70;;;;;;5067945;28;20180;-67
2023/04/14 08:37:21;;;;;;;11.27;3.97;;;18.80;82.50;;;;;;5070577;28;20699;-66
2023/04/14 08:39:50;;;;;;;9.50;3.57;;;18.80;82.50;;;;;;5073877;28;20171;-67
2023/04/14 08:42:19;;;;;;;11.70;3.30;;;18.70;82.00;;;;;;5074125;28;20194;-67
2023/04/14 08:44:47;;;;;;;10.33;2.60;;;18.70;81.70;;;;;;5067004;28;20261;-68
2023/04/14 08:47:15;;;;;;;13.37;2.47;;;18.60;82.00;;;;;;5073767;28;20214;-66
2023/04/14 08:49:52;;;;;;;10.43;2.50;;;18.50;82.40;;;;;;5073347;28;20175;-69
2023/04/14 08:52:23;;;;;;;4.87;1.70;;;18.30;83.70;;;;;;5073138;28;20309;-67
2023/04/14 08:54:51;;;;;;;4.67;2.03;;;18.20;84.60;;;;;;5073639;28;20672;-67
2023/04/14 08:57:22;;;;;;;8.60;2.30;;;18.00;85.60;;;;;;5076593;28;20183;-66
2023/04/14 08:59:50;;;;;;;4.70;1.90;;;17.90;85.70;;;;;;5071763;28;20239;-67
2023/04/14 09:02:18;;;;;;;9.77;2.27;;;17.80;86.00;;;;;;5070949;28;20191;-70
2023/04/14 09:04:46;;;;;;;10.70;2.63;;;17.80;86.30;;;;;;5075283;28;20179;-68
2023/04/14 09:07:14;;;;;;;7.20;2.50;;;17.80;86.90;;;;;;5072400;28;20176;-70
2023/04/14 09:09:43;;;;;;;9.80;2.70;;;17.80;87.30;;;;;;5074841;28;20225;-70
2023/04/14 09:12:12;;;;;;;11.77;3.40;;;17.80;87.70;;;;;;5072943;28;20262;-70
2023/04/14 09:14:40;;;;;;;11.13;3.53;;;17.80;87.90;;;;;;5073647;28;20191;-70
2023/04/14 09:17:08;;;;;;;14.10;4.07;;;17.80;87.90;;;;;;5072494;28;20184;-70
2023/04/14 09:19:36;;;;;;;13.83;4.07;;;17.80;88.30;;;;;;5072840;28;20186;-71
2023/04/14 09:22:03;;;;;;;13.10;3.50;;;17.80;88.60;;;;;;5071547;28;20682;-72
2023/04/14 09:24:33;;;;;;;15.43;4.30;;;17.80;88.90;;;;;;5083983;28;20179;-71
2023/04/14 09:27:04;;;;;;;15.13;4.83;;;17.80;89.10;;;;;;5072691;28;20218;-69
2023/04/14 09:29:32;;;;;;;14.40;4.50;;;17.80;89.40;;;;;;5073173;28;20187;-70
2023/04/14 09:32:00;;;;;;;11.60;4.00;;;17.70;89.40;;;;;;5073040;28;20194;-69
2023/04/14 09:34:27;;;;;;;8.80;3.87;;;17.70;89.40;;;;;;5073064;28;20226;-68
2023/04/14 09:37:11;;;;;;;7.00;3.63;;;17.60;89.20;;;;;;5070613;28;20259;-69
2023/04/14 09:39:51;;;;;;;8.47;4.03;;;17.60;89.20;;;;;;5068828;28;20278;-68
2023/04/14 09:42:20;;;;;;;5.90;3.50;;;17.40;88.90;;;;;;5069591;28;20688;-69
2023/04/14 09:44:57;;;;;;;8.83;3.70;;;17.40;89.20;;;;;;5073118;28;20195;-67
2023/04/14 09:47:26;;;;;;;15.43;4.63;;;17.50;89.40;;;;;;5069473;28;20183;-66
2023/04/14 09:49:59;;;;;;;11.17;6.43;;;17.40;89.20;;;;;;5070307;28;20244;-67
2023/04/14 09:52:43;;;;;;;7.33;5.77;;;17.40;89.20;;;;;;5065574;28;20645;-66
2023/04/14 09:55:15;;;;;;;13.00;6.67;;;17.50;89.50;;;;;;5068441;28;20183;-68
2023/04/14 09:57:46;;;;;;;11.23;8.73;;;17.50;89.50;;;;;;5071697;28;20179;-67
2023/04/14 10:00:18;;;;;;;12.37;9.43;;;17.60;89.50;;;;;;5068234;28;20199;-66
2023/04/14 10:02:57;;;;;;;13.57;9.33;;;17.50;89.40;;;;;;5071300;28;20176;-66
2023/04/14 10:05:28;;;;;;;16.27;10.87;;;17.60;89.60;;;;;;5061075;28;20219;-67
2023/04/14 10:08:00;;;;;;;12.80;11.43;;;17.60;89.40;;;;;;5068606;28;20193;-66
2023/04/14 10:10:28;;;;;;;12.27;10.87;;;17.60;89.40;;;;;;5069748;28;20256;-67
2023/04/14 10:12:55;;;;;;;15.13;11.47;;;17.60;89.40;;;;;;5069884;28;20179;-68
2023/04/14 10:15:23;;;;;;;14.43;12.53;;;17.70;89.40;;;;;;5068020;28;20181;-66
2023/04/14 10:17:50;;;;;;;18.50;16.27;;;17.70;89.40;;;;;;5071129;28;20655;-66
2023/04/14 10:20:18;;;;;;;21.63;19.73;;;17.70;89.40;;;;;;5072028;28;20179;-67
2023/04/14 10:22:46;;;;;;;22.90;20.60;;;17.70;89.30;;;;;;5072082;28;20190;-66
2023/04/14 10:25:14;;;;;;;22.50;20.80;;;17.70;89.60;;;;;;5068572;28;20200;-69
2023/04/14 10:27:42;;;;;;;24.73;22.80;;;17.60;89.70;;;;;;5072038;28;20191;-66
2023/04/14 10:30:10;;;;;;;29.10;26.40;;;17.60;89.90;;;;;;5070671;28;20183;-67
2023/04/14 10:32:39;;;;;;;31.13;28.63;;;17.60;90.10;;;;;;5072190;28;20179;-67
2023/04/14 10:35:09;;;;;;;31.03;28.70;;;17.50;90.10;;;;;;5069556;28;20237;-66
2023/04/14 10:37:37;;;;;;;34.27;32.10;;;17.40;90.40;;;;;;5066132;28;20297;-66
2023/04/14 10:40:05;;;;;;;37.23;33.93;;;17.40;90.40;;;;;;5071071;28;20622;-67
2023/04/14 10:43:11;;;;;;;47.13;43.77;;;17.30;90.70;;;;;;5071761;28;20594;-67
2023/04/14 10:45:58;;;;;;;54.73;50.97;;;17.30;90.90;;;;;;5048178;28;20563;-66
2023/04/14 10:48:39;;;;;;;59.47;54.77;;;17.30;91.00;;;;;;5068079;28;20190;-69
2023/04/14 10:51:09;;;;;;;58.73;54.90;;;17.10;90.90;;;;;;5069568;28;20190;-67
2023/04/14 10:53:46;;;;;;;64.57;60.50;;;17.10;91.10;;;;;;5084623;28;20206;-68
2023/04/14 10:56:14;;;;;;;69.13;64.77;;;17.00;91.20;;;;;;5069672;28;20740;-69
2023/04/14 10:58:46;;;;;;;79.70;75.07;;;17.00;91.20;;;;;;5070290;28;20195;-67
2023/04/14 11:01:30;;;;;;;86.60;81.70;;;16.90;91.20;;;;;;5071553;28;20518;-68
2023/04/14 11:04:19;;;;;;;94.23;88.47;;;16.80;91.20;;;;;;5069606;28;20186;-68
2023/04/14 11:06:46;;;;;;;111.57;104.17;;;16.80;91.30;;;;;;5066042;28;20221;-68
2023/04/14 11:09:42;;;;;;;132.63;125.73;;;16.80;91.40;;;;;;5071294;28;20222;-67
2023/04/14 11:12:30;;;;;;;153.10;144.63;;;16.80;91.50;;;;;;5055970;28;20191;-67
2023/04/14 11:15:07;;;;;;;187.83;177.77;;;16.80;91.60;;;;;;5069044;28;20695;-68
2023/04/14 11:17:38;;;;;;;209.07;198.27;;;16.80;91.60;;;;;;5068356;28;20189;-68
2023/04/14 11:20:17;;;;;;;217.80;206.80;;;16.80;91.70;;;;;;5069631;28;20189;-67
2023/04/14 11:22:49;;;;;;;174.40;164.57;;;16.70;91.60;;;;;;5066982;28;20269;-67
2023/04/14 11:25:21;;;;;;;277.67;263.93;;;16.70;91.90;;;;;;5067605;28;20195;-70
2023/04/14 11:27:48;;;;;;;267.70;254.30;;;16.70;91.80;;;;;;5072419;28;20269;-66
2023/04/14 11:30:20;;;;;;;233.47;221.47;;;16.70;91.80;;;;;;5070873;28;20182;-67
2023/04/14 11:32:52;;;;;;;261.57;247.97;;;16.60;91.80;;;;;;5066464;28;20242;-69
2023/04/14 11:35:22;;;;;;;265.23;251.90;;;16.60;92.10;;;;;;5066573;28;20476;-70
2023/04/14 11:37:54;;;;;;;275.80;261.47;;;16.70;92.20;;;;;;5067643;28;20183;-68
2023/04/14 11:40:23;;;;;;;283.07;268.87;;;16.60;92.10;;;;;;5067345;28;20183;-69
2023/04/14 11:42:59;;;;;;;277.20;262.90;;;16.50;92.20;;;;;;5073350;28;20192;-69
2023/04/14 11:45:30;;;;;;;259.53;246.17;;;16.50;92.20;;;;;;5070640;28;20228;-68
2023/04/14 11:48:03;;;;;;;247.23;235.07;;;16.50;92.20;;;;;;5068410;28;20351;-70
2023/04/14 11:50:34;;;;;;;244.30;231.80;;;16.40;92.10;;;;;;5066443;28;20614;-71
2023/04/14 11:53:06;;;;;;;243.30;230.87;;;16.30;92.10;;;;;;5069863;28;20376;-70
2023/04/14 11:55:33;;;;;;;254.97;241.90;;;16.30;92.20;;;;;;5070410;28;20192;-71
2023/04/14 11:58:02;;;;;;;259.33;246.30;;;16.30;92.10;;;;;;5070539;28;20615;-70
2023/04/14 12:00:30;;;;;;;269.97;256.60;;;16.30;92.20;;;;;;5067445;28;20630;-69
2023/04/14 12:03:01;;;;;;;283.53;269.13;;;16.30;92.30;;;;;;5069761;28;20192;-68
2023/04/14 12:05:30;;;;;;;293.43;278.73;;;16.30;92.20;;;;;;5066953;28;20221;-70
2023/04/14 12:08:02;;;;;;;281.90;267.70;;;16.30;92.30;;;;;;5069320;28;20191;-70
2023/04/14 12:10:30;;;;;;;268.50;254.33;;;16.20;92.20;;;;;;5070314;28;20244;-69
2023/04/14 12:13:03;;;;;;;257.97;245.23;;;16.20;92.10;;;;;;5070802;28;20189;-70
2023/04/14 12:15:36;;;;;;;267.13;253.33;;;16.00;92.00;;;;;;5069437;28;20548;-70
2023/04/14 12:18:10;;;;;;;261.27;248.03;;;16.00;92.10;;;;;;5072988;28;20248;-66
2023/04/14 12:21:01;;;;;;;266.20;252.60;;;15.90;92.10;;;;;;5069586;28;20584;-66
2023/04/14 12:23:29;;;;;;;261.70;248.33;;;16.00;92.20;;;;;;5066661;28;20545;-67
2023/04/14 12:25:57;;;;;;;277.17;263.03;;;15.90;92.20;;;;;;5070411;28;20292;-66
2023/04/14 12:28:28;;;;;;;282.50;268.60;;;15.90;92.20;;;;;;5070875;28;20189;-68
2023/04/14 12:31:03;;;;;;;296.80;281.63;;;15.90;92.20;;;;;;5068950;28;20194;-67
2023/04/14 12:33:32;;;;;;;307.73;292.13;;;15.80;92.20;;;;;;5071361;28;20272;-67
2023/04/14 12:36:05;;;;;;;315.17;299.30;;;15.80;92.30;;;;;;5074039;28;20188;-67
2023/04/14 12:38:33;;;;;;;307.47;292.30;;;15.80;92.20;;;;;;5073781;28;20192;-66
2023/04/14 12:41:01;;;;;;;309.50;293.77;;;15.80;92.20;;;;;;5072649;28;20191;-67
2023/04/14 12:43:40;;;;;;;309.80;294.03;;;15.80;92.10;;;;;;5074049;28;20211;-66
2023/04/14 12:46:07;;;;;;;315.13;299.00;;;15.70;92.10;;;;;;5073565;28;20265;-68
2023/04/14 12:48:45;;;;;;;336.40;319.73;;;15.70;92.10;;;;;;5071668;28;20540;-66
2023/04/14 12:51:19;;;;;;;320.73;304.57;;;15.70;92.00;;;;;;5074602;28;20206;-68